Athens/Eleftherios Venizelos International Airport

Airport
ICAO code: 
LGAV
IATA Code: 
ATH
Summary
ICAO Region: 
EUR
Territory: 
Location: 
Spata, Attica
Serving: 
Athens
Elevation: 
308 ft
Coordinates: 
Aerial View: 
37° 56' 13.427" N, 23° 56' 42.988" E
Metar
Observation
LGAV 260820Z 10005KT CAVOK 28/15 Q1018 NOSIG
Station
Athens Eleftherios Venizelos International Airport
Date/Time
2022-05-26 08:20:00
Wind direction
100°
Wind speed
05 kts
Lowest cloud amount
clouds and visibility OK
Temperature
28°C
Dew point
15°C
Humidity
45%
QNH
1018 hPa
Weather condition
n/a

International airport serving the Greek capital Athens. It is located 20 km east of Athens, in Spata.

Climatology

Mediterranean climate (Köppen climate classification Csa) - Hot, dry summer and a mild wet winter.

Runways

Designator Length Width Surface Rops
03L/21R 3800 45 ASP Yes/Yes
03R/21L 4000 45 ASP Yes/Yes
Airport map: 
Aerial View: 

SKYbrary Partners:

Safety knowledge contributed by: